Terminal Aerodrome Forecast
Issued by NWS Bismarck, ND

Home | Current Version | Previous Version | Text Only | Print | Product List | Glossary Off
Versions: 1 2 3 4 5 6 7 8 9 10 11 12 13 14 15 16

000
FTUS43 KBIS 211726
TAFISN
TAF
KISN 211726Z 2118/2218 32009KT P6SM FEW090 FEW250
     FM212000 30013KT P6SM FEW100 FEW250
     FM220300 30006KT P6SM SKC
     FM221400 30011KT P6SM SKC
     FM221700 31016G24KT P6SM FEW070 FEW250=

USA.gov is the U.S. government's official web portal to all federal, state and local government web resources and services.